Time;durP1;ratioP1;P1;durP2;ratioP2;P2;SDS_P1;SDS_P2;PMS_P1;PMS_P2;Temp;Humidity;BMP_temperature;BMP_pressure;BME280_temperature;BME280_humidity;BME280_pressure;Samples;Min_cycle;Max_cycle;Signal;HPM_P1;HPM_P2
2022/09/24 00:01:12;;;;;;;4.70;4.30;;;7.80;99.90;;;;;;5063056;28;20520;-74
2022/09/24 00:03:40;;;;;;;5.00;4.50;;;7.70;99.90;;;;;;5065141;28;20469;-74
2022/09/24 00:06:08;;;;;;;6.17;4.20;;;7.70;99.90;;;;;;5061242;28;20576;-74
2022/09/24 00:08:35;;;;;;;6.90;4.63;;;7.70;99.90;;;;;;5064297;28;20938;-74
2022/09/24 00:11:05;;;;;;;5.30;4.90;;;7.70;99.90;;;;;;5060100;28;20795;-74
2022/09/24 00:13:35;;;;;;;5.00;4.60;;;7.70;99.90;;;;;;5064381;28;20528;-74
2022/09/24 00:16:04;;;;;;;4.53;4.13;;;7.70;99.90;;;;;;5063518;28;21051;-74
2022/09/24 00:18:31;;;;;;;5.73;5.13;;;7.70;99.90;;;;;;5060804;28;20461;-74
2022/09/24 00:20:58;;;;;;;4.63;4.23;;;7.70;99.90;;;;;;5062237;28;20907;-74
2022/09/24 00:23:25;;;;;;;6.17;4.80;;;7.70;99.90;;;;;;5064987;28;21219;-74
2022/09/24 00:28:38;;;;;;;7.13;4.60;;;7.70;99.90;;;;;;5061278;28;20571;-74
2022/09/24 00:31:06;;;;;;;6.23;4.93;;;7.70;99.90;;;;;;5062552;28;21053;-74
2022/09/24 00:33:34;;;;;;;7.07;5.63;;;7.70;99.90;;;;;;5065388;28;20467;-74
2022/09/24 00:36:04;;;;;;;5.53;5.03;;;7.70;99.90;;;;;;5067540;28;21115;-74
2022/09/24 00:38:33;;;;;;;4.50;4.10;;;7.80;99.90;;;;;;5062680;28;20947;-74
2022/09/24 00:41:00;;;;;;;5.13;4.37;;;7.90;99.90;;;;;;5062122;28;20562;-74
2022/09/24 00:43:29;;;;;;;4.30;3.90;;;7.80;99.90;;;;;;5066244;28;20467;-74
2022/09/24 00:46:08;;;;;;;5.03;3.83;;;7.80;99.90;;;;;;5061740;28;20519;-74
2022/09/24 00:48:38;;;;;;;5.13;4.67;;;7.70;99.90;;;;;;5059130;28;20487;-74
2022/09/24 00:51:06;;;;;;;3.93;3.63;;;7.60;99.90;;;;;;5060198;28;20464;-74
2022/09/24 00:53:33;;;;;;;4.60;4.30;;;7.60;99.90;;;;;;5065067;28;20460;-74
2022/09/24 00:56:03;;;;;;;5.27;4.50;;;7.60;99.90;;;;;;5059863;28;20463;-74
2022/09/24 00:58:31;;;;;;;6.93;5.60;;;7.60;99.90;;;;;;5062297;28;20544;-75
2022/09/24 01:01:04;;;;;;;6.97;4.37;;;7.60;99.90;;;;;;5059099;28;20869;-74
2022/09/24 01:03:38;;;;;;;5.00;4.23;;;7.60;99.90;;;;;;5060511;28;20456;-74
2022/09/24 01:06:06;;;;;;;6.80;4.57;;;7.50;99.90;;;;;;5060626;28;20464;-74
2022/09/24 01:08:33;;;;;;;5.90;5.27;;;7.50;99.90;;;;;;5065026;28;21352;-74
2022/09/24 01:11:18;;;;;;;5.67;4.80;;;7.50;99.90;;;;;;5058998;28;20624;-74
2022/09/24 01:14:15;;;;;;;9.30;5.00;;;7.50;99.90;;;;;;5065398;28;20552;-74
2022/09/24 01:16:48;;;;;;;5.40;4.93;;;7.50;99.90;;;;;;5059906;28;20533;-74
2022/09/24 01:19:52;;;;;;;6.03;5.53;;;7.50;99.90;;;;;;5060543;28;20464;-74
2022/09/24 01:22:34;;;;;;;7.63;7.03;;;7.50;99.90;;;;;;5062877;28;20567;-74
2022/09/24 01:25:07;;;;;;;6.10;5.30;;;7.40;99.90;;;;;;5060114;28;20459;-74
2022/09/24 01:27:58;;;;;;;7.60;5.93;;;7.40;99.90;;;;;;5063970;28;20538;-74
2022/09/24 01:30:30;;;;;;;11.73;6.67;;;7.50;99.90;;;;;;5061607;28;20596;-74
2022/09/24 01:33:02;;;;;;;7.33;6.67;;;7.50;99.90;;;;;;5058698;28;20533;-74
2022/09/24 01:35:34;;;;;;;8.00;5.87;;;7.50;99.90;;;;;;5061816;28;20470;-74
2022/09/24 01:38:06;;;;;;;7.10;6.60;;;7.50;99.90;;;;;;5058996;28;20572;-74
2022/09/24 01:40:34;;;;;;;6.97;6.27;;;7.50;99.90;;;;;;5060538;28;20516;-74
2022/09/24 01:43:04;;;;;;;8.07;6.40;;;7.50;99.90;;;;;;5061150;28;20460;-74
2022/09/24 01:45:36;;;;;;;7.00;6.07;;;7.50;99.90;;;;;;5062503;28;20908;-74
2022/09/24 01:48:05;;;;;;;9.17;6.67;;;7.40;99.90;;;;;;5056931;28;20475;-74
2022/09/24 01:50:40;;;;;;;7.47;6.30;;;7.40;99.90;;;;;;5058026;28;20466;-74
2022/09/24 01:53:12;;;;;;;6.07;5.57;;;7.40;99.90;;;;;;5061321;28;20451;-74
2022/09/24 01:55:46;;;;;;;7.10;6.40;;;7.40;99.90;;;;;;5063850;28;20578;-74
2022/09/24 01:58:21;;;;;;;6.07;4.67;;;7.30;99.90;;;;;;5058436;28;20571;-74
2022/09/24 02:00:53;;;;;;;6.50;4.30;;;7.30;99.90;;;;;;5062578;28;20455;-74
2022/09/24 02:03:25;;;;;;;4.70;4.30;;;7.30;99.90;;;;;;5062163;28;20451;-74
2022/09/24 02:05:58;;;;;;;5.80;5.10;;;7.30;99.90;;;;;;5059854;28;20497;-74
2022/09/24 02:08:29;;;;;;;3.70;3.40;;;7.20;99.90;;;;;;5063351;28;21207;-74
2022/09/24 02:11:03;;;;;;;5.37;4.70;;;7.20;99.90;;;;;;5062738;28;20549;-74
2022/09/24 02:13:38;;;;;;;5.60;4.67;;;7.20;99.90;;;;;;5061851;28;20464;-74
2022/09/24 02:16:10;;;;;;;4.80;3.83;;;7.20;99.90;;;;;;5061215;28;20638;-74
2022/09/24 02:18:40;;;;;;;4.50;4.10;;;7.30;99.90;;;;;;5062511;28;20529;-74
2022/09/24 02:21:10;;;;;;;5.37;4.87;;;7.20;99.90;;;;;;5059214;28;20950;-74
2022/09/24 02:23:42;;;;;;;4.97;4.00;;;7.20;99.90;;;;;;5058207;28;20495;-74
2022/09/24 02:26:10;;;;;;;4.30;3.87;;;7.10;99.90;;;;;;5061428;28;20491;-74
2022/09/24 02:28:37;;;;;;;4.10;3.80;;;7.10;99.90;;;;;;5060024;28;20490;-74
2022/09/24 02:31:10;;;;;;;4.60;3.97;;;7.00;99.90;;;;;;5059621;28;20456;-74
2022/09/24 02:36:26;;;;;;;5.03;4.63;;;7.10;99.90;;;;;;5063885;28;20873;-74
2022/09/24 02:38:53;;;;;;;6.10;5.50;;;7.20;99.90;;;;;;5056189;28;20476;-74
2022/09/24 02:41:22;;;;;;;6.70;4.73;;;7.20;99.90;;;;;;5057880;28;20980;-74
2022/09/24 02:43:50;;;;;;;7.50;6.70;;;7.20;99.90;;;;;;5062047;28;20466;-74
2022/09/24 02:46:18;;;;;;;9.67;5.83;;;7.30;99.90;;;;;;5060205;28;21024;-74
2022/09/24 02:48:45;;;;;;;6.47;4.90;;;7.20;99.90;;;;;;5056741;28;20516;-74
2022/09/24 02:51:12;;;;;;;5.17;4.77;;;7.20;99.90;;;;;;5057800;28;21126;-74
2022/09/24 02:53:39;;;;;;;5.10;4.70;;;7.10;99.90;;;;;;5062098;28;20459;-74
2022/09/24 02:56:07;;;;;;;5.47;4.97;;;7.10;99.90;;;;;;5058309;28;20488;-74
2022/09/24 02:58:36;;;;;;;6.90;5.97;;;7.10;99.90;;;;;;5060229;28;20488;-74
2022/09/24 03:01:04;;;;;;;6.17;5.63;;;7.00;99.90;;;;;;5059717;28;20979;-74
2022/09/24 03:03:32;;;;;;;9.60;5.93;;;6.90;99.90;;;;;;5060105;28;20465;-74
2022/09/24 03:06:00;;;;;;;7.93;6.10;;;6.90;99.90;;;;;;5061899;28;21191;-74
2022/09/24 03:08:29;;;;;;;6.80;6.20;;;6.90;99.90;;;;;;5062033;28;20502;-74
2022/09/24 03:10:56;;;;;;;10.33;6.40;;;6.90;99.90;;;;;;5059659;28;20462;-74
2022/09/24 03:13:22;;;;;;;6.43;5.73;;;6.90;99.90;;;;;;5060238;28;20483;-74
2022/09/24 03:15:49;;;;;;;6.40;5.80;;;6.80;99.90;;;;;;5061803;28;20490;-74
2022/09/24 03:18:16;;;;;;;6.67;6.17;;;6.90;99.90;;;;;;5059558;28;21063;-74
2022/09/24 03:20:55;;;;;;;8.20;6.43;;;6.90;99.90;;;;;;5060788;28;20471;-74
2022/09/24 03:23:22;;;;;;;7.27;6.07;;;6.90;99.90;;;;;;5059229;28;20460;-74
2022/09/24 03:25:49;;;;;;;8.73;7.23;;;6.90;99.90;;;;;;5060185;28;21383;-74
2022/09/24 03:28:17;;;;;;;7.33;6.73;;;7.00;99.90;;;;;;5058914;28;20556;-74
2022/09/24 03:31:00;;;;;;;7.10;6.47;;;6.90;99.90;;;;;;5060606;28;20556;-74
2022/09/24 03:33:28;;;;;;;8.87;7.20;;;7.00;99.90;;;;;;5057090;28;20479;-74
2022/09/24 03:35:58;;;;;;;7.57;6.73;;;7.00;99.90;;;;;;5062739;28;20464;-74
2022/09/24 03:38:25;;;;;;;9.77;7.07;;;7.00;99.90;;;;;;5058654;28;20456;-74
2022/09/24 03:40:52;;;;;;;9.40;6.27;;;7.00;99.90;;;;;;5061247;28;20904;-74
2022/09/24 03:43:19;;;;;;;8.50;5.97;;;7.00;99.90;;;;;;5057111;28;20459;-74
2022/09/24 03:45:47;;;;;;;7.53;6.80;;;6.90;99.90;;;;;;5062103;28;20499;-74
2022/09/24 03:48:15;;;;;;;9.33;4.83;;;7.00;99.90;;;;;;5056659;28;20488;-74
2022/09/24 03:50:42;;;;;;;6.67;6.17;;;6.90;99.90;;;;;;5057301;28;20551;-74
2022/09/24 03:53:10;;;;;;;6.17;5.57;;;6.90;99.90;;;;;;5057919;28;21026;-75
2022/09/24 03:55:42;;;;;;;10.10;7.03;;;6.90;99.90;;;;;;5062062;28;20498;-74
2022/09/24 03:58:09;;;;;;;6.00;5.50;;;6.90;99.90;;;;;;5059041;28;20455;-74
2022/09/24 04:00:37;;;;;;;5.50;5.00;;;6.90;99.90;;;;;;5062341;28;20459;-74
2022/09/24 04:03:04;;;;;;;11.33;5.93;;;6.90;99.90;;;;;;5058639;28;20959;-74
2022/09/24 04:05:31;;;;;;;6.73;6.20;;;6.90;99.90;;;;;;5058711;28;20541;-74
2022/09/24 04:07:58;;;;;;;6.93;6.23;;;6.90;99.90;;;;;;5061727;28;20459;-74
2022/09/24 04:10:26;;;;;;;7.17;6.63;;;6.90;99.90;;;;;;5053859;28;20514;-74
2022/09/24 04:12:54;;;;;;;6.23;5.37;;;6.80;99.90;;;;;;5058251;28;20538;-74
2022/09/24 04:15:22;;;;;;;7.03;6.33;;;6.80;99.90;;;;;;5059917;28;20466;-74
2022/09/24 04:17:50;;;;;;;7.10;6.40;;;6.80;99.90;;;;;;5056333;28;20546;-74
2022/09/24 04:20:21;;;;;;;6.73;6.07;;;6.70;99.90;;;;;;5058224;28;20459;-74
2022/09/24 04:22:49;;;;;;;8.53;7.77;;;6.60;99.90;;;;;;5061923;28;20470;-74
2022/09/24 04:25:16;;;;;;;6.87;6.33;;;6.60;99.90;;;;;;5058882;28;20552;-74
2022/09/24 04:27:45;;;;;;;9.10;7.80;;;6.60;99.90;;;;;;5057503;28;20522;-74
2022/09/24 04:30:13;;;;;;;8.40;7.60;;;6.50;99.90;;;;;;5063043;28;20519;-75
2022/09/24 04:32:40;;;;;;;10.80;7.07;;;6.50;99.90;;;;;;5060740;28;20521;-74
2022/09/24 04:35:08;;;;;;;9.10;7.33;;;6.50;99.90;;;;;;5058387;28;20518;-74
2022/09/24 04:37:36;;;;;;;6.87;6.27;;;6.40;99.90;;;;;;5062730;28;20517;-74
2022/09/24 04:40:03;;;;;;;7.67;6.63;;;6.40;99.90;;;;;;5064779;28;20456;-74
2022/09/24 04:42:30;;;;;;;7.73;6.90;;;6.30;99.90;;;;;;5063433;28;20459;-74
2022/09/24 04:44:58;;;;;;;7.40;6.20;;;6.30;99.90;;;;;;5063527;28;20479;-74
2022/09/24 04:47:25;;;;;;;9.97;9.00;;;6.30;99.90;;;;;;5054398;28;20498;-74
2022/09/24 04:49:52;;;;;;;8.50;7.70;;;6.40;99.90;;;;;;5061408;28;20522;-74
2022/09/24 04:52:20;;;;;;;7.80;7.03;;;6.30;99.90;;;;;;5062068;28;21034;-74
2022/09/24 04:54:47;;;;;;;6.83;6.17;;;6.40;99.90;;;;;;5062711;28;20608;-74
2022/09/24 04:57:15;;;;;;;9.77;8.80;;;6.40;99.90;;;;;;5063320;28;20459;-74
2022/09/24 04:59:42;;;;;;;7.53;6.83;;;6.40;99.90;;;;;;5061858;28;20462;-76
2022/09/24 05:02:10;;;;;;;8.80;7.80;;;6.40;99.90;;;;;;5061393;28;21191;-77
2022/09/24 05:04:37;;;;;;;7.70;7.00;;;6.30;99.90;;;;;;5060352;28;20464;-76
2022/09/24 05:07:05;;;;;;;8.63;7.83;;;6.40;99.90;;;;;;5061625;28;20915;-75
2022/09/24 05:09:32;;;;;;;7.97;7.17;;;6.40;99.90;;;;;;5061202;28;20552;-75
2022/09/24 05:11:59;;;;;;;7.90;6.17;;;6.40;99.90;;;;;;5060564;28;20492;-75
2022/09/24 05:14:26;;;;;;;7.97;7.20;;;6.50;99.90;;;;;;5062222;28;20574;-75
2022/09/24 05:16:54;;;;;;;7.73;6.93;;;6.50;99.90;;;;;;5053223;28;20492;-75
2022/09/24 05:19:22;;;;;;;10.57;9.57;;;6.70;99.90;;;;;;5044176;28;20839;-75
2022/09/24 05:21:49;;;;;;;8.43;7.40;;;6.90;99.90;;;;;;5058491;28;20583;-75
2022/09/24 05:24:16;;;;;;;8.90;8.00;;;7.00;99.90;;;;;;5057323;28;20472;-75
2022/09/24 05:29:43;;;;;;;11.57;9.03;;;7.10;99.90;;;;;;4993395;28;20480;-75
2022/09/24 05:32:14;;;;;;;8.53;7.80;;;7.10;99.90;;;;;;4998159;28;21578;-75
2022/09/24 05:34:43;;;;;;;9.20;8.40;;;7.20;99.90;;;;;;5016229;28;21205;-75
2022/09/24 05:37:11;;;;;;;8.90;7.83;;;7.30;99.90;;;;;;5043906;28;20567;-75
2022/09/24 05:39:38;;;;;;;9.33;7.70;;;7.30;99.90;;;;;;5045267;28;20471;-75
2022/09/24 05:42:06;;;;;;;8.87;7.97;;;7.40;99.90;;;;;;5049432;28;21304;-75
2022/09/24 05:44:34;;;;;;;9.60;8.70;;;7.40;99.90;;;;;;5044544;28;20976;-75
2022/09/24 05:47:01;;;;;;;9.77;8.77;;;7.30;99.90;;;;;;5043230;28;20467;-75
2022/09/24 05:49:28;;;;;;;8.50;7.80;;;7.30;99.90;;;;;;5042915;28;21059;-75
2022/09/24 05:51:56;;;;;;;9.40;8.40;;;7.40;99.90;;;;;;5041108;28;20987;-75
2022/09/24 05:54:23;;;;;;;9.63;8.80;;;7.40;99.90;;;;;;5047584;28;20614;-75
2022/09/24 05:56:50;;;;;;;9.80;8.77;;;7.40;99.90;;;;;;5053572;28;20499;-75
2022/09/24 05:59:17;;;;;;;10.20;9.40;;;7.50;99.90;;;;;;5061232;28;20516;-75
2022/09/24 06:01:44;;;;;;;9.37;8.40;;;7.60;99.90;;;;;;5061059;28;20556;-75
2022/09/24 06:04:12;;;;;;;9.13;8.33;;;7.70;99.90;;;;;;5058346;28;20456;-75
2022/09/24 06:06:38;;;;;;;8.67;7.80;;;7.70;99.90;;;;;;5064020;28;20464;-75
2022/09/24 06:09:08;;;;;;;12.43;9.50;;;7.80;99.90;;;;;;5058245;28;20958;-75
2022/09/24 06:11:35;;;;;;;10.77;8.60;;;7.90;99.90;;;;;;5055754;28;20463;-75
2022/09/24 06:14:04;;;;;;;10.13;9.13;;;8.10;99.90;;;;;;5055373;28;20461;-75
2022/09/24 06:16:33;;;;;;;10.40;8.57;;;8.10;99.90;;;;;;5053862;28;20467;-76
2022/09/24 06:19:00;;;;;;;9.90;8.37;;;8.10;99.90;;;;;;5056052;28;20472;-76
2022/09/24 06:21:27;;;;;;;12.17;8.17;;;8.10;99.90;;;;;;5058366;28;20521;-76
2022/09/24 06:23:54;;;;;;;9.10;7.77;;;8.10;99.90;;;;;;5062094;28;20488;-76
2022/09/24 06:26:24;;;;;;;7.07;6.37;;;8.00;99.90;;;;;;5062291;28;20545;-76
2022/09/24 06:28:51;;;;;;;7.70;6.43;;;8.00;99.90;;;;;;5058442;28;20540;-76
2022/09/24 06:31:18;;;;;;;6.80;6.30;;;7.90;99.90;;;;;;5056933;28;20521;-76
2022/09/24 06:33:45;;;;;;;7.63;7.03;;;8.10;99.90;;;;;;5055027;28;20509;-75
2022/09/24 06:36:13;;;;;;;7.27;6.50;;;8.30;99.90;;;;;;5048977;28;20483;-76
2022/09/24 06:38:40;;;;;;;8.43;7.73;;;8.30;99.90;;;;;;5051816;28;20456;-76
2022/09/24 06:41:08;;;;;;;6.23;5.80;;;8.40;99.90;;;;;;5058262;28;20555;-76
2022/09/24 06:43:37;;;;;;;7.97;7.33;;;8.60;99.90;;;;;;5054959;28;20471;-78
2022/09/24 06:46:04;;;;;;;8.73;8.03;;;8.50;99.90;;;;;;5056743;28;20470;-78
2022/09/24 06:48:31;;;;;;;9.23;6.87;;;8.60;99.90;;;;;;5060562;28;20459;-78
2022/09/24 06:50:59;;;;;;;7.50;6.90;;;8.50;99.90;;;;;;5061623;28;20487;-85
2022/09/24 06:53:26;;;;;;;8.20;6.93;;;8.80;99.90;;;;;;5064233;28;20464;-76
2022/09/24 06:55:56;;;;;;;8.77;7.97;;;9.00;99.90;;;;;;5063176;28;20459;-76
2022/09/24 06:58:23;;;;;;;8.10;6.53;;;9.20;99.90;;;;;;5058967;28;20471;-76
2022/09/24 07:00:57;;;;;;;7.77;6.90;;;9.50;99.90;;;;;;5055944;28;20545;-77
2022/09/24 07:03:25;;;;;;;7.00;6.10;;;9.70;99.90;;;;;;5049663;28;20463;-76
2022/09/24 07:05:52;;;;;;;7.20;6.60;;;9.80;99.90;;;;;;5052482;28;20472;-76
2022/09/24 07:08:19;;;;;;;6.87;6.17;;;9.90;99.90;;;;;;5059272;28;20526;-77
2022/09/24 07:10:47;;;;;;;6.00;5.50;;;9.90;99.90;;;;;;5055596;28;20516;-76
2022/09/24 07:13:15;;;;;;;5.00;4.60;;;9.80;99.90;;;;;;5056040;28;20554;-76
2022/09/24 07:15:43;;;;;;;5.27;4.97;;;9.90;99.90;;;;;;5064308;28;20460;-76
2022/09/24 07:18:12;;;;;;;6.20;5.70;;;9.80;99.90;;;;;;5063631;28;20818;-76
2022/09/24 07:20:39;;;;;;;6.13;5.53;;;10.00;99.90;;;;;;5056584;28;20681;-76
2022/09/24 07:23:07;;;;;;;6.40;5.83;;;10.10;99.90;;;;;;5056682;28;21008;-76
2022/09/24 07:25:35;;;;;;;6.60;5.13;;;10.10;99.90;;;;;;5046724;28;20504;-76
2022/09/24 07:28:03;;;;;;;4.87;4.30;;;10.00;99.90;;;;;;5058468;28;20464;-76
2022/09/24 07:30:32;;;;;;;5.73;5.33;;;10.00;99.90;;;;;;5053102;28;21049;-76
2022/09/24 07:32:59;;;;;;;6.90;6.20;;;10.10;99.90;;;;;;5054268;28;20563;-74
2022/09/24 07:35:28;;;;;;;5.87;5.37;;;10.30;99.90;;;;;;5060822;28;20536;-74
2022/09/24 07:38:00;;;;;;;6.30;5.30;;;10.00;99.90;;;;;;5057495;28;20935;-75
2022/09/24 07:40:27;;;;;;;5.20;4.80;;;10.00;99.90;;;;;;5059306;28;20459;-75
2022/09/24 07:42:54;;;;;;;5.90;5.40;;;10.00;99.90;;;;;;5059136;28;20517;-75
2022/09/24 07:45:21;;;;;;;5.60;5.17;;;10.20;99.90;;;;;;5061252;28;20547;-74
2022/09/24 07:47:55;;;;;;;7.20;5.30;;;10.50;99.90;;;;;;5053929;28;20521;-75
2022/09/24 07:50:22;;;;;;;5.80;5.30;;;10.70;99.90;;;;;;5055936;28;20565;-74
2022/09/24 07:52:52;;;;;;;4.13;3.80;;;10.60;99.90;;;;;;5058160;28;20471;-76
2022/09/24 07:55:19;;;;;;;4.30;4.00;;;10.60;99.90;;;;;;5060834;28;20474;-74
2022/09/24 07:57:49;;;;;;;4.40;4.00;;;10.60;99.90;;;;;;5054270;28;20496;-75
2022/09/24 08:00:17;;;;;;;4.60;4.20;;;10.70;99.90;;;;;;5046754;28;20599;-74
2022/09/24 08:02:44;;;;;;;4.23;3.90;;;10.70;99.90;;;;;;5059810;28;20541;-74
2022/09/24 08:05:12;;;;;;;3.67;3.47;;;10.60;99.90;;;;;;5062593;28;20514;-75
2022/09/24 08:07:40;;;;;;;4.77;4.30;;;10.80;99.90;;;;;;5061791;28;20557;-75
2022/09/24 08:10:09;;;;;;;3.77;3.47;;;10.90;99.90;;;;;;5061299;28;20491;-75
2022/09/24 08:12:36;;;;;;;3.63;3.40;;;11.10;99.90;;;;;;5065330;28;20459;-74
2022/09/24 08:15:04;;;;;;;4.17;3.77;;;11.10;99.90;;;;;;5066228;28;20448;-74
2022/09/24 08:17:31;;;;;;;4.00;3.70;;;11.30;99.90;;;;;;5059908;28;20931;-74
2022/09/24 08:19:58;;;;;;;4.60;3.77;;;11.30;99.90;;;;;;5065388;28;20448;-75
2022/09/24 08:22:25;;;;;;;8.40;4.97;;;11.40;99.90;;;;;;5063149;28;20488;-75
2022/09/24 08:24:53;;;;;;;4.20;3.90;;;11.70;99.90;;;;;;5064150;28;20561;-74
2022/09/24 08:27:22;;;;;;;4.07;3.03;;;12.00;99.90;;;;;;5066708;28;20899;-74
2022/09/24 08:29:49;;;;;;;4.00;3.70;;;11.90;99.90;;;;;;5066287;28;20460;-75
2022/09/24 08:32:16;;;;;;;4.10;3.73;;;12.00;99.90;;;;;;5061489;28;20468;-75
2022/09/24 08:34:44;;;;;;;4.40;3.57;;;12.60;99.90;;;;;;5065623;28;21045;-75
2022/09/24 08:37:12;;;;;;;5.10;3.60;;;12.90;99.90;;;;;;5065493;28;20532;-74
2022/09/24 08:39:39;;;;;;;3.30;3.10;;;13.10;99.90;;;;;;5064380;28;20488;-74
2022/09/24 08:42:11;;;;;;;4.70;4.30;;;13.30;99.90;;;;;;5067127;28;20798;-75
2022/09/24 08:47:36;;;;;;;3.90;3.60;;;14.20;99.90;;;;;;5057289;28;20466;-74
2022/09/24 08:50:09;;;;;;;3.30;3.10;;;14.60;99.90;;;;;;5066057;28;20446;-75
2022/09/24 08:52:50;;;;;;;3.60;3.30;;;14.40;99.90;;;;;;5061359;28;20471;-74
2022/09/24 08:55:21;;;;;;;3.50;2.60;;;14.60;99.90;;;;;;5068458;28;20511;-74
2022/09/24 08:57:57;;;;;;;3.60;3.30;;;14.50;99.90;;;;;;5060984;28;20472;-75
2022/09/24 09:00:28;;;;;;;3.40;3.10;;;14.40;99.90;;;;;;5065408;28;20493;-75
2022/09/24 09:03:01;;;;;;;3.00;2.67;;;14.00;99.90;;;;;;5074807;28;21104;-74
2022/09/24 09:05:46;;;;;;;3.77;3.37;;;14.10;99.90;;;;;;5065270;28;20451;-74
2022/09/24 09:08:19;;;;;;;3.90;3.40;;;14.40;99.90;;;;;;5066237;28;20466;-75
2022/09/24 09:10:46;;;;;;;3.27;2.97;;;14.60;99.90;;;;;;5059682;28;20483;-75
2022/09/24 09:13:19;;;;;;;3.30;2.97;;;14.70;99.90;;;;;;5067116;28;20582;-74
2022/09/24 09:16:02;;;;;;;3.20;2.90;;;14.50;99.90;;;;;;5059512;28;20467;-76
2022/09/24 09:18:33;;;;;;;3.13;2.93;;;14.90;99.90;;;;;;5059306;28;20450;-74
2022/09/24 09:21:10;;;;;;;4.87;4.47;;;14.70;99.90;;;;;;5065095;28;20498;-75
2022/09/24 09:23:45;;;;;;;4.30;3.90;;;14.90;99.90;;;;;;5058921;28;20449;-75
2022/09/24 09:26:13;;;;;;;3.90;2.37;;;15.00;99.90;;;;;;5053347;28;21050;-75
2022/09/24 09:28:39;;;;;;;4.60;3.30;;;14.80;99.90;;;;;;5063518;28;20544;-75
2022/09/24 09:31:21;;;;;;;2.73;2.63;;;14.80;99.90;;;;;;5059762;28;20920;-75
2022/09/24 09:34:04;;;;;;;3.03;2.30;;;14.80;99.90;;;;;;5059937;28;20581;-76
2022/09/24 09:36:44;;;;;;;3.60;3.40;;;15.00;99.90;;;;;;5058146;28;20447;-74
2022/09/24 09:39:22;;;;;;;3.40;3.20;;;14.80;99.90;;;;;;5065785;28;20452;-75
2022/09/24 09:41:56;;;;;;;3.10;2.70;;;14.30;99.90;;;;;;5057235;28;20521;-74
2022/09/24 09:44:29;;;;;;;3.53;2.50;;;14.50;99.90;;;;;;5064074;28;20462;-74
2022/09/24 09:47:09;;;;;;;3.87;3.57;;;14.70;99.90;;;;;;5062399;28;20457;-74
2022/09/24 09:49:39;;;;;;;3.07;2.77;;;14.70;99.90;;;;;;5061830;28;20937;-74
2022/09/24 09:52:13;;;;;;;3.47;3.20;;;14.50;99.90;;;;;;5056309;28;20548;-74
2022/09/24 09:54:42;;;;;;;2.97;2.77;;;14.50;99.90;;;;;;5064743;28;20462;-74
2022/09/24 09:57:14;;;;;;;3.10;2.87;;;14.70;99.90;;;;;;5065820;28;20464;-74
2022/09/24 09:59:41;;;;;;;3.47;3.27;;;14.70;99.90;;;;;;5047360;28;20522;-74
2022/09/24 10:02:18;;;;;;;2.93;2.73;;;14.70;99.90;;;;;;5066246;28;20498;-74
2022/09/24 10:04:46;;;;;;;4.00;2.90;;;14.50;99.90;;;;;;5064926;28;21154;-74
2022/09/24 10:07:15;;;;;;;4.83;2.80;;;14.60;99.90;;;;;;5056134;28;20974;-74
2022/09/24 10:09:44;;;;;;;3.10;2.80;;;14.50;99.90;;;;;;5064212;28;20479;-75
2022/09/24 10:12:20;;;;;;;4.17;3.77;;;14.50;99.90;;;;;;5062535;28;20509;-74
2022/09/24 10:14:57;;;;;;;3.60;3.40;;;14.70;99.90;;;;;;5056772;28;21073;-74
2022/09/24 10:17:33;;;;;;;2.70;2.50;;;14.70;99.90;;;;;;5060259;28;20479;-74
2022/09/24 10:20:02;;;;;;;3.20;2.90;;;14.80;99.90;;;;;;5064036;28;20513;-74
2022/09/24 10:22:30;;;;;;;3.20;2.90;;;15.20;99.90;;;;;;5059403;28;20456;-74
2022/09/24 10:25:00;;;;;;;4.70;3.13;;;15.20;99.90;;;;;;5064722;28;20480;-74
2022/09/24 10:27:33;;;;;;;2.80;2.60;;;15.00;99.90;;;;;;5060846;28;20951;-74
2022/09/24 10:32:57;;;;;;;7.50;3.50;;;15.50;99.90;;;;;;5063965;28;20437;-74
2022/09/24 10:35:27;;;;;;;3.87;3.57;;;15.50;99.90;;;;;;5063304;28;20490;-74
2022/09/24 10:37:56;;;;;;;5.10;4.03;;;15.20;99.90;;;;;;5060435;28;20565;-75
2022/09/24 10:40:27;;;;;;;3.70;3.40;;;15.50;99.90;;;;;;5062011;28;20455;-75
2022/09/24 10:43:01;;;;;;;3.13;2.80;;;15.70;99.90;;;;;;5061341;28;20525;-75
2022/09/24 10:45:46;;;;;;;3.10;2.90;;;15.80;99.90;;;;;;5061328;28;20446;-75
2022/09/24 10:48:21;;;;;;;2.60;2.40;;;16.00;99.90;;;;;;5052714;28;20454;-75
2022/09/24 10:50:56;;;;;;;4.37;3.93;;;16.10;99.90;;;;;;5062580;28;20886;-75
2022/09/24 10:53:37;;;;;;;3.53;3.23;;;16.50;99.90;;;;;;5063816;28;20450;-75
2022/09/24 10:56:14;;;;;;;3.20;3.00;;;17.00;99.90;;;;;;5063344;28;20497;-75
2022/09/24 10:59:01;;;;;;;4.30;3.90;;;16.80;99.90;;;;;;5057900;28;20479;-75
2022/09/24 11:01:36;;;;;;;4.20;3.90;;;16.80;99.90;;;;;;5066117;28;20470;-74
2022/09/24 11:04:31;;;;;;;4.60;4.30;;;16.50;99.90;;;;;;5073849;28;20443;-75
2022/09/24 11:07:32;;;;;;;4.10;3.90;;;16.50;99.90;;;;;;5056725;28;20560;-75
2022/09/24 11:10:08;;;;;;;4.57;4.17;;;16.60;99.90;;;;;;5059064;28;20480;-75
2022/09/24 11:12:46;;;;;;;4.23;3.80;;;16.60;99.90;;;;;;5063180;28;20479;-74
2022/09/24 11:15:34;;;;;;;5.00;4.70;;;16.50;99.90;;;;;;5062513;28;20482;-74
2022/09/24 11:18:18;;;;;;;4.50;3.70;;;16.70;99.90;;;;;;5055052;28;20852;-75
2022/09/24 11:20:52;;;;;;;5.00;4.50;;;16.60;99.90;;;;;;5062638;28;21028;-75
2022/09/24 11:23:44;;;;;;;5.00;4.63;;;16.40;99.90;;;;;;5055770;28;20451;-74
2022/09/24 11:26:24;;;;;;;4.90;4.20;;;16.70;99.90;;;;;;5061121;28;20857;-75
2022/09/24 11:29:27;;;;;;;4.00;3.80;;;16.70;99.90;;;;;;5061179;28;20513;-75
2022/09/24 11:32:07;;;;;;;4.70;4.30;;;17.10;99.90;;;;;;5055415;28;21025;-75
2022/09/24 11:34:52;;;;;;;4.53;4.10;;;17.20;99.90;;;;;;5049334;28;20487;-75
2022/09/24 11:37:36;;;;;;;4.37;4.07;;;17.00;99.90;;;;;;5064350;28;20443;-75
2022/09/24 11:40:16;;;;;;;3.73;3.43;;;17.20;99.90;;;;;;5062711;28;20509;-75
2022/09/24 11:42:56;;;;;;;12.80;5.10;;;16.90;99.90;;;;;;5061677;28;21019;-75
2022/09/24 11:45:34;;;;;;;4.67;4.27;;;16.60;99.90;;;;;;5055254;28;20478;-75
2022/09/24 11:48:37;;;;;;;4.70;4.40;;;16.60;99.90;;;;;;5059958;28;20469;-75
2022/09/24 11:51:15;;;;;;;4.90;3.80;;;17.00;99.90;;;;;;5065297;28;21058;-75
2022/09/24 11:53:50;;;;;;;5.43;3.73;;;17.00;99.90;;;;;;5064757;28;21327;-75
2022/09/24 11:56:21;;;;;;;4.33;4.03;;;17.20;99.90;;;;;;5059389;28;20497;-75
2022/09/24 11:58:52;;;;;;;3.60;3.30;;;17.10;99.90;;;;;;5060405;28;20500;-75
2022/09/24 12:01:24;;;;;;;4.10;3.90;;;16.80;99.90;;;;;;5067639;28;20447;-75
2022/09/24 12:03:57;;;;;;;4.73;4.33;;;16.90;99.90;;;;;;5067643;28;20962;-75
2022/09/24 12:06:30;;;;;;;3.80;3.60;;;16.80;99.90;;;;;;5054431;28;20783;-75
2022/09/24 12:09:14;;;;;;;3.93;3.63;;;16.70;99.90;;;;;;5068225;28;20551;-75
2022/09/24 12:11:47;;;;;;;4.30;4.00;;;16.50;99.90;;;;;;5066492;28;20576;-75
2022/09/24 12:14:18;;;;;;;5.80;5.40;;;16.70;99.90;;;;;;5068806;28;20491;-75
2022/09/24 12:16:49;;;;;;;6.63;4.93;;;16.70;99.90;;;;;;5064156;28;20486;-75
2022/09/24 12:19:20;;;;;;;4.93;4.63;;;16.70;99.90;;;;;;5066798;28;20451;-75
2022/09/24 12:21:50;;;;;;;4.80;4.30;;;16.70;99.90;;;;;;5059709;28;20472;-75
2022/09/24 12:24:23;;;;;;;5.20;3.83;;;16.80;99.90;;;;;;5067389;28;20500;-75
2022/09/24 12:26:52;;;;;;;5.43;3.70;;;17.10;99.90;;;;;;5066687;28;21089;-75
2022/09/24 12:35:23;;;;;;;4.00;3.70;;;17.30;99.90;;;;;;5067529;28;20446;-75
2022/09/24 12:37:56;;;;;;;3.87;3.63;;;17.30;99.90;;;;;;5065768;28;20882;-75
2022/09/24 12:41:04;;;;;;;5.03;4.30;;;17.40;99.90;;;;;;5058876;28;20511;-75
2022/09/24 12:43:38;;;;;;;6.80;4.67;;;17.50;99.90;;;;;;5051742;28;20466;-75
2022/09/24 12:46:08;;;;;;;4.87;4.50;;;17.40;99.90;;;;;;5068119;28;20452;-75
2022/09/24 12:48:38;;;;;;;4.17;3.90;;;17.50;99.90;;;;;;5059352;28;20934;-75
2022/09/24 12:51:09;;;;;;;3.97;3.67;;;17.50;99.90;;;;;;5060833;28;20867;-75
2022/09/24 12:53:40;;;;;;;3.90;3.60;;;17.80;99.90;;;;;;5065372;28;20458;-75
2022/09/24 12:56:10;;;;;;;4.20;3.90;;;17.50;99.90;;;;;;5062267;28;20563;-75
2022/09/24 12:58:40;;;;;;;4.60;4.27;;;17.40;99.90;;;;;;5064167;28;20538;-75
2022/09/24 13:01:11;;;;;;;4.50;4.20;;;17.40;99.90;;;;;;5063114;28;20473;-75
2022/09/24 13:03:40;;;;;;;4.17;3.90;;;17.30;99.90;;;;;;5062416;28;20455;-75
2022/09/24 13:06:24;;;;;;;5.20;4.57;;;17.20;99.90;;;;;;5054539;28;20679;-75
2022/09/24 13:08:50;;;;;;;4.77;4.37;;;17.40;99.90;;;;;;5067063;28;20476;-75
2022/09/24 13:11:37;;;;;;;4.47;4.17;;;17.50;99.90;;;;;;5050644;28;21152;-75
2022/09/24 13:14:20;;;;;;;4.20;3.83;;;17.70;99.90;;;;;;5055406;28;20486;-75
2022/09/24 13:16:50;;;;;;;5.37;4.97;;;17.60;99.90;;;;;;5059271;28;20459;-75
2022/09/24 13:19:29;;;;;;;8.40;4.97;;;17.60;99.90;;;;;;5053216;28;20478;-75
2022/09/24 13:21:59;;;;;;;4.10;3.80;;;17.70;99.90;;;;;;5065505;28;20458;-75
2022/09/24 13:24:28;;;;;;;5.60;5.10;;;17.60;99.90;;;;;;5069625;28;20444;-75
2022/09/24 13:27:09;;;;;;;3.60;3.40;;;17.90;99.90;;;;;;5066074;28;20485;-75
2022/09/24 13:29:39;;;;;;;4.37;4.07;;;17.80;99.90;;;;;;5062342;28;20930;-75
2022/09/24 13:32:18;;;;;;;5.47;5.07;;;17.40;99.90;;;;;;5063117;28;20487;-75
2022/09/24 13:34:49;;;;;;;7.03;4.67;;;17.50;99.90;;;;;;5060601;28;20548;-75